createdAt,value
2023-06-30T00:01:50.940Z,3.83
2023-06-30T00:03:54.770Z,4.10
2023-06-30T00:05:58.188Z,3.63
2023-06-30T00:08:01.582Z,4.15
2023-06-30T00:10:06.427Z,5.13
2023-06-30T00:12:11.464Z,4.50
2023-06-30T00:14:14.207Z,4.07
2023-06-30T00:16:17.413Z,4.88
2023-06-30T00:18:20.070Z,3.80
2023-06-30T00:20:25.518Z,5.18
2023-06-30T00:22:29.008Z,3.67
2023-06-30T00:24:32.315Z,3.83
2023-06-30T00:26:35.097Z,4.38
2023-06-30T00:28:37.994Z,4.70
2023-06-30T00:30:41.750Z,5.45
2023-06-30T00:32:44.623Z,4.63
2023-06-30T00:34:47.831Z,5.32
2023-06-30T00:36:52.254Z,4.88
2023-06-30T00:38:56.360Z,5.15
2023-06-30T00:40:59.692Z,4.25
2023-06-30T00:43:03.388Z,4.18
2023-06-30T00:45:07.441Z,4.13
2023-06-30T00:47:11.302Z,3.88
2023-06-30T00:49:14.944Z,4.13
2023-06-30T00:51:18.489Z,3.72
2023-06-30T00:53:21.755Z,3.70
2023-06-30T00:55:26.606Z,4.10
2023-06-30T00:57:29.393Z,3.58
2023-06-30T00:59:33.560Z,4.50
2023-06-30T01:02:12.861Z,4.60
2023-06-30T01:04:25.459Z,4.70
2023-06-30T01:06:39.529Z,3.90
2023-06-30T01:09:07.380Z,5.32
2023-06-30T01:11:12.064Z,4.50
2023-06-30T01:13:16.297Z,4.35
2023-06-30T01:15:20.643Z,5.93
2023-06-30T01:17:26.551Z,7.30
2023-06-30T01:19:37.480Z,7.15
2023-06-30T01:21:41.312Z,7.47
2023-06-30T01:23:57.259Z,8.25
2023-06-30T01:26:00.891Z,7.18
2023-06-30T01:28:04.872Z,9.15
2023-06-30T01:30:09.259Z,7.70
2023-06-30T01:32:18.620Z,6.57
2023-06-30T01:34:21.398Z,7.72
2023-06-30T01:36:24.162Z,8.57
2023-06-30T01:38:26.872Z,8.48
2023-06-30T01:40:31.923Z,7.82
2023-06-30T01:42:37.760Z,7.22
2023-06-30T01:44:42.824Z,7.88
2023-06-30T01:46:46.092Z,8.70
2023-06-30T01:48:50.225Z,8.30
2023-06-30T01:50:55.545Z,8.57
2023-06-30T01:53:00.061Z,8.65
2023-06-30T01:55:04.772Z,8.75
2023-06-30T01:57:08.170Z,7.80
2023-06-30T01:59:10.978Z,8.02
2023-06-30T02:01:15.164Z,8.38
2023-06-30T02:03:18.441Z,7.25
2023-06-30T02:05:25.218Z,7.85
2023-06-30T02:07:28.645Z,7.47
2023-06-30T02:09:43.172Z,7.85
2023-06-30T02:11:51.717Z,7.85
2023-06-30T02:13:54.590Z,7.57
2023-06-30T02:15:57.492Z,9.48
2023-06-30T02:18:01.165Z,10.52
2023-06-30T02:20:07.328Z,9.45
2023-06-30T02:22:10.002Z,8.32
2023-06-30T02:24:13.501Z,8.25
2023-06-30T02:26:17.683Z,7.93
2023-06-30T02:28:20.545Z,8.38
2023-06-30T02:30:23.669Z,9.88
2023-06-30T02:32:27.241Z,10.23
2023-06-30T02:34:30.044Z,9.38
2023-06-30T02:36:33.262Z,11.43
2023-06-30T02:38:36.062Z,10.05
2023-06-30T02:40:39.020Z,11.90
2023-06-30T02:42:41.840Z,8.95
2023-06-30T02:44:45.972Z,11.02
2023-06-30T02:46:48.995Z,10.50
2023-06-30T02:48:51.738Z,9.60
2023-06-30T02:50:55.116Z,9.18
2023-06-30T02:53:00.655Z,9.02
2023-06-30T02:55:04.203Z,9.55
2023-06-30T02:57:07.245Z,9.63
2023-06-30T02:59:10.940Z,11.50
2023-06-30T03:01:14.302Z,10.27
2023-06-30T03:03:19.388Z,10.55
2023-06-30T03:05:23.164Z,9.43
2023-06-30T03:07:26.656Z,9.35
2023-06-30T03:09:29.851Z,8.70
2023-06-30T03:11:33.135Z,10.38
2023-06-30T03:13:36.116Z,10.73
2023-06-30T03:15:39.436Z,8.57
2023-06-30T03:17:42.618Z,10.60
2023-06-30T03:19:45.849Z,9.13
2023-06-30T03:21:49.050Z,8.52
2023-06-30T03:23:51.927Z,10.45
2023-06-30T03:25:54.970Z,9.45
2023-06-30T03:27:59.131Z,10.52
2023-06-30T03:30:02.193Z,10.75
2023-06-30T03:32:06.331Z,11.13
2023-06-30T03:34:09.931Z,11.02
2023-06-30T03:36:12.690Z,12.02
2023-06-30T03:38:15.342Z,9.13
2023-06-30T03:40:18.159Z,9.90
2023-06-30T03:42:21.156Z,10.50
2023-06-30T03:44:24.037Z,9.73
2023-06-30T03:46:27.343Z,11.98
2023-06-30T03:48:29.897Z,9.90
2023-06-30T03:50:33.180Z,11.35
2023-06-30T03:52:36.497Z,11.05
2023-06-30T03:54:39.033Z,9.93
2023-06-30T03:56:41.912Z,11.10
2023-06-30T03:58:47.800Z,9.13
2023-06-30T04:00:51.626Z,10.30
2023-06-30T04:02:54.592Z,10.98
2023-06-30T04:04:57.529Z,12.02
2023-06-30T04:07:00.477Z,10.32
2023-06-30T04:09:04.462Z,12.18
2023-06-30T04:11:07.318Z,9.18
2023-06-30T04:13:10.638Z,9.07
2023-06-30T04:15:13.500Z,10.18
2023-06-30T04:17:16.549Z,10.45
2023-06-30T04:19:19.202Z,11.48
2023-06-30T04:21:23.868Z,11.65
2023-06-30T04:23:26.790Z,13.48
2023-06-30T04:25:29.396Z,12.43
2023-06-30T04:27:32.107Z,11.13
2023-06-30T04:29:34.748Z,10.10
2023-06-30T04:31:37.324Z,12.90
2023-06-30T04:33:41.118Z,13.20
2023-06-30T04:35:46.003Z,12.32
2023-06-30T04:37:49.062Z,11.02
2023-06-30T04:39:52.079Z,10.90
2023-06-30T04:41:54.716Z,10.82
2023-06-30T04:43:57.853Z,9.93
2023-06-30T04:46:01.600Z,10.98
2023-06-30T04:48:05.451Z,9.40
2023-06-30T04:50:08.821Z,9.70
2023-06-30T04:52:11.680Z,9.38
2023-06-30T04:54:14.779Z,9.45
2023-06-30T04:56:18.010Z,10.23
2023-06-30T04:58:23.607Z,8.82
2023-06-30T05:00:29.304Z,10.40
2023-06-30T05:02:32.462Z,8.55
2023-06-30T05:04:35.393Z,8.00
2023-06-30T05:06:38.502Z,9.02
2023-06-30T05:08:41.498Z,9.00
2023-06-30T05:10:44.845Z,9.85
2023-06-30T05:12:50.262Z,8.73
2023-06-30T05:14:54.319Z,9.15
2023-06-30T05:16:57.400Z,8.38
2023-06-30T05:19:00.349Z,8.70
2023-06-30T05:21:03.763Z,9.50
2023-06-30T05:23:07.225Z,9.93
2023-06-30T05:25:10.734Z,8.15
2023-06-30T05:27:13.913Z,7.95
2023-06-30T05:29:16.763Z,8.88
2023-06-30T05:31:20.315Z,8.00
2023-06-30T05:33:23.267Z,7.53
2023-06-30T05:35:26.166Z,7.85
2023-06-30T05:37:29.069Z,8.77
2023-06-30T05:39:31.818Z,7.50
2023-06-30T05:41:34.661Z,8.68
2023-06-30T05:43:37.280Z,8.20
2023-06-30T05:45:40.741Z,9.07
2023-06-30T05:47:44.088Z,8.82
2023-06-30T05:49:46.961Z,8.80
2023-06-30T05:51:50.286Z,6.05
2023-06-30T05:53:53.590Z,7.85
2023-06-30T05:55:57.630Z,6.50
2023-06-30T05:58:00.386Z,7.10
2023-06-30T06:00:04.213Z,8.15
2023-06-30T06:02:15.302Z,6.95
2023-06-30T06:04:20.188Z,6.97
2023-06-30T06:06:24.652Z,6.53
2023-06-30T06:08:27.265Z,7.57
2023-06-30T06:10:30.615Z,7.35
2023-06-30T06:12:33.133Z,7.50
2023-06-30T06:14:36.165Z,6.88
2023-06-30T06:16:38.743Z,6.43
2023-06-30T06:18:41.561Z,6.93
2023-06-30T06:20:44.765Z,7.55
2023-06-30T06:22:47.654Z,7.15
2023-06-30T06:24:51.155Z,7.10
2023-06-30T06:26:53.845Z,7.18
2023-06-30T06:28:56.898Z,6.80
2023-06-30T06:30:59.483Z,6.43
2023-06-30T06:33:03.381Z,7.28
2023-06-30T06:35:06.718Z,6.85
2023-06-30T06:37:09.960Z,6.40
2023-06-30T06:39:12.941Z,6.57
2023-06-30T06:41:15.600Z,5.88
2023-06-30T06:43:18.573Z,6.65
2023-06-30T06:45:21.624Z,5.88
2023-06-30T06:48:01.704Z,6.15
2023-06-30T06:50:06.012Z,6.88
2023-06-30T06:52:08.997Z,6.10
2023-06-30T06:54:11.889Z,5.38
2023-06-30T06:56:14.804Z,5.53
2023-06-30T06:58:18.680Z,5.68
2023-06-30T07:00:21.957Z,5.80
2023-06-30T07:02:24.808Z,6.35
2023-06-30T07:04:27.632Z,6.43
2023-06-30T07:06:30.298Z,6.25
2023-06-30T07:08:36.751Z,6.05
2023-06-30T07:10:39.627Z,4.93
2023-06-30T07:12:42.541Z,5.15
2023-06-30T07:14:47.884Z,4.60
2023-06-30T07:16:52.543Z,5.93
2023-06-30T07:18:55.842Z,5.65
2023-06-30T07:20:59.206Z,5.00
2023-06-30T07:23:01.899Z,5.70
2023-06-30T07:25:09.213Z,4.75
2023-06-30T07:27:12.289Z,5.05
2023-06-30T07:29:15.246Z,5.82
2023-06-30T07:31:18.639Z,4.90
2023-06-30T07:33:21.657Z,4.93
2023-06-30T07:35:25.448Z,4.70
2023-06-30T07:37:28.530Z,4.65
2023-06-30T07:39:32.005Z,5.50
2023-06-30T07:41:36.849Z,4.65
2023-06-30T07:43:39.742Z,4.82
2023-06-30T07:45:42.874Z,4.80
2023-06-30T07:47:50.712Z,5.10
2023-06-30T07:49:53.628Z,4.88
2023-06-30T07:51:57.101Z,4.22
2023-06-30T07:53:59.864Z,4.50
2023-06-30T07:56:02.510Z,4.45
2023-06-30T07:58:05.135Z,4.97
2023-06-30T08:00:09.801Z,4.93
2023-06-30T08:02:19.719Z,5.10
2023-06-30T08:04:23.550Z,4.47
2023-06-30T08:06:26.791Z,4.45
2023-06-30T08:08:33.453Z,5.50
2023-06-30T08:10:39.002Z,4.32
2023-06-30T08:14:45.435Z,4.00
2023-06-30T08:16:48.748Z,3.92
2023-06-30T08:18:52.815Z,3.88
2023-06-30T08:20:57.406Z,4.25
2023-06-30T08:23:00.597Z,3.95
2023-06-30T08:25:04.142Z,4.85
2023-06-30T08:27:07.902Z,4.05
2023-06-30T08:29:10.609Z,3.90
2023-06-30T08:31:14.584Z,4.38
2023-06-30T08:33:26.581Z,3.90
2023-06-30T08:35:40.578Z,3.83
2023-06-30T08:37:43.936Z,4.15
2023-06-30T08:39:46.725Z,3.60
2023-06-30T08:41:53.927Z,3.30
2023-06-30T08:43:59.246Z,4.15
2023-06-30T08:46:03.821Z,3.33
2023-06-30T08:48:07.809Z,3.47
2023-06-30T08:50:11.407Z,3.50
2023-06-30T08:52:16.760Z,3.65
2023-06-30T08:54:20.103Z,3.45
2023-06-30T08:56:23.667Z,3.53
2023-06-30T08:58:29.349Z,3.72
2023-06-30T09:00:32.867Z,4.00
2023-06-30T09:02:38.417Z,3.97
2023-06-30T09:04:45.960Z,3.22
2023-06-30T09:06:50.568Z,3.55
2023-06-30T09:09:21.951Z,2.90
2023-06-30T09:11:26.070Z,3.40
2023-06-30T09:13:29.929Z,3.38
2023-06-30T09:15:34.305Z,3.67
2023-06-30T09:17:38.085Z,3.70
2023-06-30T09:19:41.224Z,3.70
2023-06-30T09:21:44.351Z,3.83
2023-06-30T09:23:46.966Z,3.88
2023-06-30T09:25:50.497Z,3.55
2023-06-30T09:27:57.918Z,2.92
2023-06-30T09:30:00.476Z,3.67
2023-06-30T09:32:04.593Z,3.45
2023-06-30T09:34:15.480Z,3.10
2023-06-30T09:36:19.090Z,3.67
2023-06-30T09:38:22.941Z,3.53
2023-06-30T09:40:26.688Z,2.70
2023-06-30T09:42:29.515Z,2.90
2023-06-30T09:44:41.891Z,3.55
2023-06-30T09:46:52.229Z,2.97
2023-06-30T09:48:56.779Z,3.38
2023-06-30T09:51:00.306Z,3.15
2023-06-30T09:53:03.911Z,3.03
2023-06-30T09:55:16.169Z,3.13
2023-06-30T09:59:24.427Z,3.25
2023-06-30T10:01:27.711Z,3.75
2023-06-30T10:03:31.127Z,3.28
2023-06-30T10:05:34.144Z,3.25
2023-06-30T10:07:39.514Z,3.00
2023-06-30T10:09:46.242Z,3.08
2023-06-30T10:11:54.440Z,3.00
2023-06-30T10:14:00.501Z,3.58
2023-06-30T10:16:05.643Z,3.03
2023-06-30T10:18:13.985Z,3.08
2023-06-30T10:20:19.552Z,2.72
2023-06-30T10:22:23.241Z,2.90
2023-06-30T10:24:28.716Z,3.20
2023-06-30T10:26:36.488Z,2.60
2023-06-30T10:28:40.269Z,3.13
2023-06-30T10:30:44.418Z,2.63
2023-06-30T10:32:47.987Z,3.05
2023-06-30T10:34:52.901Z,3.00
2023-06-30T10:36:56.159Z,2.90
2023-06-30T10:39:01.136Z,2.58
2023-06-30T10:41:46.161Z,2.47
2023-06-30T10:44:09.566Z,2.80
2023-06-30T10:46:13.001Z,2.63
2023-06-30T10:48:21.961Z,2.60
2023-06-30T10:50:25.639Z,2.90
2023-06-30T10:52:31.063Z,2.85
2023-06-30T10:54:47.826Z,2.78
2023-06-30T10:57:06.334Z,2.13
2023-06-30T10:59:10.938Z,2.40
2023-06-30T11:01:15.734Z,2.85
2023-06-30T11:03:19.286Z,2.60
2023-06-30T11:05:34.454Z,3.13
2023-06-30T11:07:37.545Z,2.47
2023-06-30T11:09:50.234Z,2.70
2023-06-30T11:11:53.641Z,3.03
2023-06-30T11:14:06.964Z,3.20
2023-06-30T11:16:10.716Z,3.10
2023-06-30T11:18:24.520Z,2.78
2023-06-30T11:20:28.202Z,2.90
2023-06-30T11:22:32.744Z,2.70
2023-06-30T11:24:35.352Z,2.63
2023-06-30T11:26:38.459Z,2.80
2023-06-30T11:28:43.669Z,2.80
2023-06-30T11:30:46.460Z,3.00
2023-06-30T11:32:54.743Z,2.58
2023-06-30T11:34:58.596Z,2.75
2023-06-30T11:37:08.470Z,2.60
2023-06-30T11:39:11.329Z,2.47
2023-06-30T11:41:20.628Z,2.60
2023-06-30T11:43:24.310Z,2.75
2023-06-30T11:45:29.087Z,2.70
2023-06-30T11:47:32.697Z,2.45
2023-06-30T11:49:40.058Z,2.40
2023-06-30T11:51:43.396Z,2.55
2023-06-30T11:53:50.305Z,2.80
2023-06-30T11:55:53.713Z,2.47
2023-06-30T11:57:57.744Z,2.58
2023-06-30T12:00:19.259Z,2.05
2023-06-30T12:02:36.141Z,2.10
2023-06-30T12:04:39.565Z,2.50
2023-06-30T12:06:48.842Z,2.58
2023-06-30T12:08:51.949Z,2.70
2023-06-30T12:10:55.734Z,2.50
2023-06-30T12:12:59.191Z,2.42
2023-06-30T12:15:06.508Z,2.65
2023-06-30T12:17:10.754Z,2.20
2023-06-30T12:19:14.474Z,2.30
2023-06-30T12:21:17.471Z,2.60
2023-06-30T12:23:29.834Z,2.58
2023-06-30T12:25:35.722Z,2.20
2023-06-30T12:27:43.998Z,2.00
2023-06-30T12:29:50.359Z,2.13
2023-06-30T12:31:55.169Z,2.30
2023-06-30T12:33:58.612Z,2.45
2023-06-30T12:36:08.124Z,2.22
2023-06-30T12:38:11.560Z,2.67
2023-06-30T12:40:15.276Z,2.70
2023-06-30T12:42:19.946Z,2.55
2023-06-30T12:44:23.553Z,2.60
2023-06-30T12:46:27.543Z,2.33
2023-06-30T12:48:30.522Z,2.67
2023-06-30T12:50:34.494Z,2.30
2023-06-30T12:52:37.289Z,2.40
2023-06-30T12:54:40.397Z,2.60
2023-06-30T12:56:43.007Z,2.50
2023-06-30T12:58:45.838Z,2.33
2023-06-30T13:00:48.928Z,2.20
2023-06-30T13:02:52.249Z,2.40
2023-06-30T13:04:55.011Z,2.60
2023-06-30T13:06:58.028Z,2.72
2023-06-30T13:09:00.774Z,2.25
2023-06-30T13:11:04.206Z,2.10
2023-06-30T13:13:06.920Z,2.47
2023-06-30T13:15:12.136Z,2.50
2023-06-30T13:17:16.617Z,2.35
2023-06-30T13:19:20.249Z,2.35
2023-06-30T13:21:23.502Z,2.20
2023-06-30T13:23:36.485Z,2.35
2023-06-30T13:25:41.116Z,2.30
2023-06-30T13:27:44.036Z,2.45
2023-06-30T13:29:52.305Z,2.05
2023-06-30T13:31:56.281Z,2.25
2023-06-30T13:34:00.065Z,2.30
2023-06-30T13:36:04.120Z,2.20
2023-06-30T13:38:07.039Z,2.33
2023-06-30T13:40:12.904Z,2.25
2023-06-30T13:42:15.896Z,2.00
2023-06-30T13:44:18.934Z,2.30
2023-06-30T13:46:22.430Z,2.35
2023-06-30T13:48:25.671Z,2.30
2023-06-30T13:50:29.451Z,2.30
2023-06-30T13:52:32.116Z,2.05
2023-06-30T13:54:37.825Z,2.08
2023-06-30T13:56:40.641Z,2.30
2023-06-30T13:58:43.321Z,2.13
2023-06-30T14:00:48.566Z,2.15
2023-06-30T14:02:51.604Z,2.10
2023-06-30T14:04:55.904Z,2.40
2023-06-30T14:07:00.566Z,2.50
2023-06-30T14:09:04.680Z,2.20
2023-06-30T14:11:07.459Z,2.60
2023-06-30T14:13:10.681Z,2.45
2023-06-30T14:15:13.609Z,2.28
2023-06-30T14:17:17.076Z,2.20
2023-06-30T14:19:20.073Z,2.30
2023-06-30T14:21:23.348Z,2.42
2023-06-30T14:23:26.214Z,2.58
2023-06-30T14:25:28.894Z,2.30
2023-06-30T14:27:31.724Z,2.42
2023-06-30T14:29:35.908Z,2.40
2023-06-30T14:31:39.068Z,2.30
2023-06-30T14:33:42.484Z,2.40
2023-06-30T14:35:45.995Z,2.40
2023-06-30T14:37:50.294Z,2.28
2023-06-30T14:39:53.431Z,2.30
2023-06-30T14:42:01.912Z,2.38
2023-06-30T14:44:06.165Z,2.10
2023-06-30T14:46:09.434Z,2.33
2023-06-30T14:48:13.016Z,1.92
2023-06-30T14:50:15.808Z,2.00
2023-06-30T14:52:19.172Z,2.05
2023-06-30T14:54:22.213Z,2.08
2023-06-30T14:56:25.107Z,1.90
2023-06-30T14:58:28.518Z,1.88
2023-06-30T15:00:31.678Z,2.20
2023-06-30T15:02:34.904Z,2.20
2023-06-30T15:04:38.383Z,2.13
2023-06-30T15:06:41.547Z,2.00
2023-06-30T15:08:44.877Z,2.30
2023-06-30T15:10:47.540Z,2.67
2023-06-30T15:12:50.370Z,2.25
2023-06-30T15:14:53.135Z,2.20
2023-06-30T15:16:55.763Z,2.47
2023-06-30T15:18:58.617Z,2.25
2023-06-30T15:21:01.322Z,2.25
2023-06-30T15:23:04.586Z,2.65
2023-06-30T15:25:08.045Z,2.22
2023-06-30T15:27:11.330Z,2.13
2023-06-30T15:29:16.487Z,2.17
2023-06-30T15:31:19.947Z,2.13
2023-06-30T15:33:23.463Z,2.10
2023-06-30T15:35:26.807Z,2.30
2023-06-30T15:37:29.792Z,2.30
2023-06-30T15:39:32.534Z,2.85
2023-06-30T15:41:37.304Z,3.67
2023-06-30T15:43:39.797Z,6.38
2023-06-30T15:45:42.423Z,10.02
2023-06-30T15:47:45.419Z,7.35
2023-06-30T15:49:48.307Z,7.43
2023-06-30T15:51:50.851Z,6.25
2023-06-30T15:53:54.249Z,5.13
2023-06-30T15:55:58.359Z,7.95
2023-06-30T15:58:02.598Z,6.97
2023-06-30T16:00:07.659Z,5.70
2023-06-30T16:02:17.671Z,4.03
2023-06-30T16:04:21.512Z,3.38
2023-06-30T16:06:24.593Z,3.38
2023-06-30T16:08:27.307Z,3.25
2023-06-30T16:10:29.801Z,3.03
2023-06-30T16:12:33.013Z,3.05
2023-06-30T16:14:35.879Z,2.72
2023-06-30T16:16:39.076Z,2.58
2023-06-30T16:18:42.379Z,2.60
2023-06-30T16:20:45.429Z,2.75
2023-06-30T16:22:48.204Z,2.70
2023-06-30T16:24:51.241Z,2.63
2023-06-30T16:26:54.249Z,2.55
2023-06-30T16:28:57.768Z,2.72
2023-06-30T16:31:00.181Z,2.63
2023-06-30T16:33:02.933Z,2.97
2023-06-30T16:35:06.762Z,2.60
2023-06-30T16:37:09.683Z,2.97
2023-06-30T16:39:12.855Z,3.10
2023-06-30T16:41:15.686Z,3.28
2023-06-30T16:43:19.188Z,3.60
2023-06-30T16:45:24.441Z,3.90
2023-06-30T16:47:27.202Z,4.05
2023-06-30T16:49:33.778Z,4.03
2023-06-30T16:51:37.481Z,4.22
2023-06-30T16:53:40.719Z,4.28
2023-06-30T16:55:43.978Z,4.55
2023-06-30T16:57:48.655Z,4.45
2023-06-30T16:59:51.421Z,3.78
2023-06-30T17:01:56.308Z,4.05
2023-06-30T17:03:59.552Z,4.13
2023-06-30T17:06:03.199Z,4.50
2023-06-30T17:08:06.253Z,4.50
2023-06-30T17:10:09.640Z,4.07
2023-06-30T17:12:13.852Z,4.40
2023-06-30T17:14:16.777Z,4.13
2023-06-30T17:16:22.345Z,4.30
2023-06-30T17:18:27.253Z,3.95
2023-06-30T17:20:30.526Z,3.60
2023-06-30T17:22:33.453Z,4.55
2023-06-30T17:24:36.286Z,4.13
2023-06-30T17:26:39.552Z,4.35
2023-06-30T17:28:43.265Z,3.90
2023-06-30T17:30:46.071Z,4.72
2023-06-30T17:32:49.240Z,3.97
2023-06-30T17:34:52.091Z,3.95
2023-06-30T17:37:08.661Z,4.28
2023-06-30T17:39:12.325Z,4.40
2023-06-30T17:41:15.104Z,4.13
2023-06-30T17:43:18.801Z,3.92
2023-06-30T17:45:21.601Z,4.00
2023-06-30T17:47:24.367Z,4.57
2023-06-30T17:49:31.809Z,4.28
2023-06-30T17:51:34.748Z,5.00
2023-06-30T17:53:38.081Z,4.25
2023-06-30T17:55:43.927Z,4.45
2023-06-30T17:57:47.513Z,4.05
2023-06-30T17:59:50.302Z,4.15
2023-06-30T18:01:53.219Z,4.00
2023-06-30T18:03:56.054Z,4.13
2023-06-30T18:06:00.500Z,4.55
2023-06-30T18:08:04.755Z,5.10
2023-06-30T18:10:09.157Z,4.90
2023-06-30T18:12:12.840Z,5.30
2023-06-30T18:14:15.678Z,4.90
2023-06-30T18:16:18.432Z,4.85
2023-06-30T18:18:21.985Z,5.00
2023-06-30T18:20:25.009Z,5.07
2023-06-30T18:22:28.017Z,4.35
2023-06-30T18:24:31.364Z,4.60
2023-06-30T18:26:34.825Z,4.80
2023-06-30T18:28:38.042Z,4.93
2023-06-30T18:30:41.221Z,5.10
2023-06-30T18:32:44.481Z,4.40
2023-06-30T18:34:48.429Z,4.80
2023-06-30T18:36:52.387Z,4.57
2023-06-30T18:38:55.235Z,5.15
2023-06-30T18:40:57.956Z,4.45
2023-06-30T18:43:00.577Z,4.60
2023-06-30T18:45:05.348Z,5.30
2023-06-30T18:47:09.365Z,4.65
2023-06-30T18:49:12.911Z,5.80
2023-06-30T18:51:16.671Z,6.15
2023-06-30T18:53:19.451Z,6.28
2023-06-30T18:55:22.907Z,5.75
2023-06-30T18:57:26.367Z,5.70
2023-06-30T18:59:29.088Z,5.38
2023-06-30T19:01:32.327Z,5.50
2023-06-30T19:03:35.747Z,5.10
2023-06-30T19:05:38.903Z,5.35
2023-06-30T19:07:42.127Z,5.25
2023-06-30T19:09:44.924Z,5.13
2023-06-30T19:11:48.158Z,5.68
2023-06-30T19:13:51.889Z,5.30
2023-06-30T19:15:55.471Z,4.65
2023-06-30T19:17:58.776Z,4.78
2023-06-30T19:20:01.756Z,4.70
2023-06-30T19:22:04.929Z,5.45
2023-06-30T19:24:08.898Z,7.07
2023-06-30T19:26:12.608Z,6.60
2023-06-30T19:28:16.325Z,5.70
2023-06-30T19:30:20.154Z,6.45
2023-06-30T19:32:23.290Z,5.88
2023-06-30T19:34:26.181Z,5.85
2023-06-30T19:36:33.157Z,6.72
2023-06-30T19:38:36.587Z,6.53
2023-06-30T19:40:39.520Z,5.72
2023-06-30T19:42:42.682Z,6.13
2023-06-30T19:44:47.767Z,6.65
2023-06-30T19:46:51.728Z,6.30
2023-06-30T19:48:55.747Z,6.43
2023-06-30T19:50:58.565Z,6.70
2023-06-30T19:53:04.360Z,7.43
2023-06-30T19:55:08.768Z,6.82
2023-06-30T19:57:11.469Z,7.30
2023-06-30T19:59:14.524Z,6.75
2023-06-30T20:01:19.991Z,7.03
2023-06-30T20:03:23.223Z,6.53
2023-06-30T20:05:26.722Z,44.15
2023-06-30T20:07:29.871Z,7.38
2023-06-30T20:09:34.516Z,6.57
2023-06-30T20:11:37.319Z,6.60
2023-06-30T20:13:41.170Z,6.60
2023-06-30T20:15:44.651Z,7.05
2023-06-30T20:17:48.284Z,7.18
2023-06-30T20:19:51.474Z,6.80
2023-06-30T20:21:54.810Z,7.32
2023-06-30T20:23:57.715Z,6.93
2023-06-30T20:26:02.093Z,6.90
2023-06-30T20:28:05.831Z,7.50
2023-06-30T20:30:09.756Z,8.70
2023-06-30T20:32:12.851Z,7.57
2023-06-30T20:34:15.590Z,7.30
2023-06-30T20:36:18.659Z,7.18
2023-06-30T20:38:22.198Z,7.10
2023-06-30T20:40:25.308Z,7.43
2023-06-30T20:42:28.959Z,7.85
2023-06-30T20:44:31.919Z,6.97
2023-06-30T20:46:35.251Z,7.45
2023-06-30T20:48:38.623Z,7.65
2023-06-30T20:50:41.848Z,7.75
2023-06-30T20:52:44.628Z,7.20
2023-06-30T20:54:47.778Z,7.38
2023-06-30T20:56:52.637Z,7.78
2023-06-30T20:58:56.406Z,7.82
2023-06-30T21:00:59.314Z,8.13
2023-06-30T21:03:02.605Z,8.45
2023-06-30T21:05:06.121Z,6.90
2023-06-30T21:07:09.198Z,6.90
2023-06-30T21:09:12.309Z,7.45
2023-06-30T21:11:15.387Z,6.70
2023-06-30T21:13:18.273Z,7.03
2023-06-30T21:15:21.371Z,6.28
2023-06-30T21:17:24.422Z,6.80
2023-06-30T21:19:27.170Z,6.97
2023-06-30T21:21:31.976Z,7.10
2023-06-30T21:23:34.932Z,7.70
2023-06-30T21:25:37.775Z,7.38
2023-06-30T21:27:40.680Z,7.70
2023-06-30T21:29:43.545Z,8.70
2023-06-30T21:31:46.450Z,9.18
2023-06-30T21:33:49.916Z,10.50
2023-06-30T21:35:53.090Z,9.77
2023-06-30T21:37:56.101Z,11.40
2023-06-30T21:40:02.760Z,23.55
2023-06-30T21:42:05.718Z,30.60
2023-06-30T21:44:08.468Z,33.55
2023-06-30T21:46:15.870Z,23.90
2023-06-30T21:48:18.850Z,19.67
2023-06-30T21:50:21.801Z,17.90
2023-06-30T21:52:25.683Z,12.43
2023-06-30T21:54:46.209Z,10.18
2023-06-30T21:56:51.105Z,11.85
2023-06-30T21:58:54.047Z,10.38
2023-06-30T22:00:57.441Z,10.18
2023-06-30T22:03:00.710Z,8.30
2023-06-30T22:05:04.057Z,8.27
2023-06-30T22:07:06.957Z,8.88
2023-06-30T22:09:16.299Z,9.35
2023-06-30T22:11:19.588Z,9.50
2023-06-30T22:13:23.949Z,9.35
2023-06-30T22:15:27.771Z,8.55
2023-06-30T22:17:30.866Z,9.77
2023-06-30T22:19:35.849Z,9.70
2023-06-30T22:21:41.382Z,10.27
2023-06-30T22:23:45.366Z,9.50
2023-06-30T22:25:48.022Z,8.93
2023-06-30T22:27:54.362Z,9.73
2023-06-30T22:29:57.139Z,10.05
2023-06-30T22:31:59.780Z,9.02
2023-06-30T22:34:02.946Z,9.70
2023-06-30T22:36:06.685Z,9.25
2023-06-30T22:38:09.404Z,9.13
2023-06-30T22:40:12.991Z,9.75
2023-06-30T22:42:16.175Z,8.10
2023-06-30T22:44:19.189Z,9.77
2023-06-30T22:46:21.843Z,8.85
2023-06-30T22:48:24.967Z,8.73
2023-06-30T22:50:27.682Z,8.55
2023-06-30T22:52:30.951Z,8.07
2023-06-30T22:54:35.978Z,9.27
2023-06-30T22:56:39.470Z,11.13
2023-06-30T22:58:42.603Z,11.10
2023-06-30T23:00:45.341Z,12.65
2023-06-30T23:02:48.401Z,12.10
2023-06-30T23:04:51.068Z,11.15
2023-06-30T23:06:53.849Z,10.93
2023-06-30T23:08:56.681Z,10.60
2023-06-30T23:10:59.892Z,10.00
2023-06-30T23:13:03.750Z,9.60
2023-06-30T23:15:07.042Z,9.73
2023-06-30T23:17:17.010Z,9.40
2023-06-30T23:19:19.991Z,9.52
2023-06-30T23:21:22.631Z,8.98
2023-06-30T23:23:29.410Z,9.65
2023-06-30T23:25:34.842Z,9.65
2023-06-30T23:27:40.824Z,9.00
2023-06-30T23:29:46.369Z,9.60
2023-06-30T23:31:49.649Z,9.35
2023-06-30T23:33:53.805Z,8.63
2023-06-30T23:35:57.241Z,9.20
2023-06-30T23:38:00.008Z,7.93
2023-06-30T23:40:03.173Z,8.98
2023-06-30T23:42:06.943Z,9.43
2023-06-30T23:44:09.973Z,10.55
2023-06-30T23:46:23.031Z,10.48
2023-06-30T23:48:25.785Z,12.95
2023-06-30T23:50:28.538Z,12.43
2023-06-30T23:52:32.136Z,13.77
2023-06-30T23:54:35.426Z,13.02
2023-06-30T23:56:37.861Z,13.10
2023-06-30T23:58:40.420Z,14.10
